Time,TemperatureF,DewpointF,PressureIn,WindDirection,WindDirectionDegrees,WindSpeedMPH,WindSpeedGustMPH,Humidity,HourlyPrecipIn,Conditions,Clouds,dailyrainin,SoftwareType,DateUTC
2013-02-24 00:01:00,46.0,27.0,30.23,NW,320,22.0,22.0,45,-99.99,,,-99.99,,2013-02-24 08:01:00,
2013-02-24 00:11:00,46.0,27.0,30.24,NW,320,16.0,20.0,45,-99.99,,,-99.99,,2013-02-24 08:11:00,
2013-02-24 00:21:00,46.0,25.0,30.24,NW,310,17.0,22.0,42,-99.99,,,-99.99,,2013-02-24 08:21:00,
2013-02-24 00:31:00,46.0,25.0,30.24,NW,310,15.0,24.0,42,-99.99,,,-99.99,,2013-02-24 08:31:00,
2013-02-24 00:41:00,46.0,25.0,30.24,NW,320,15.0,22.0,42,-99.99,,,-99.99,,2013-02-24 08:41:00,
2013-02-24 00:53:00,46.0,25.0,30.23,NW,310,21.0,22.0,42,-99.99,,,-99.99,,2013-02-24 08:53:00,
2013-02-24 01:01:00,46.0,25.0,30.23,NW,310,21.0,22.0,42,-99.99,,,-99.99,,2013-02-24 09:01:00,
2013-02-24 01:11:00,46.0,23.0,30.24,NW,310,16.0,23.0,39,-99.99,,,-99.99,,2013-02-24 09:11:00,
2013-02-24 01:21:00,46.0,23.0,30.24,NW,310,21.0,24.0,39,-99.99,,,-99.99,,2013-02-24 09:21:00,
2013-02-24 01:31:00,46.0,23.0,30.24,NW,310,17.0,25.0,39,-99.99,,,-99.99,,2013-02-24 09:31:00,
2013-02-24 01:41:00,46.0,23.0,30.24,NW,320,16.0,27.0,39,-99.99,,,-99.99,,2013-02-24 09:41:00,
2013-02-24 01:51:00,46.0,23.0,30.24,NW,320,22.0,27.0,39,-99.99,,,-99.99,,2013-02-24 09:51:00,
2013-02-24 02:01:00,46.0,23.0,30.24,NW,320,22.0,27.0,39,-99.99,,,-99.99,,2013-02-24 10:01:00,
2013-02-24 02:11:00,46.0,23.0,30.24,NW,320,27.0,29.0,39,-99.99,,,-99.99,,2013-02-24 10:11:00,
2013-02-24 02:21:00,46.0,23.0,30.23,NW,320,23.0,28.0,39,-99.99,,,-99.99,,2013-02-24 10:21:00,
2013-02-24 02:31:00,46.0,23.0,30.23,NW,310,23.0,28.0,39,-99.99,,,-99.99,,2013-02-24 10:31:00,
2013-02-24 02:41:00,46.0,23.0,30.22,NW,310,21.0,28.0,39,-99.99,,,-99.99,,2013-02-24 10:41:00,
2013-02-24 02:51:00,46.0,25.0,30.22,NW,310,20.0,27.0,42,-99.99,,,-99.99,,2013-02-24 10:51:00,
2013-02-24 03:01:00,46.0,25.0,30.22,NW,310,20.0,27.0,42,-99.99,,,-99.99,,2013-02-24 11:01:00,
2013-02-24 03:11:00,46.0,25.0,30.22,NW,320,18.0,30.0,42,-99.99,,,-99.99,,2013-02-24 11:11:00,
2013-02-24 03:21:00,46.0,25.0,30.22,NNW,330,16.0,27.0,42,-99.99,,,-99.99,,2013-02-24 11:21:00,
2013-02-24 03:31:00,46.0,25.0,30.22,NW,320,16.0,28.0,42,-99.99,,,-99.99,,2013-02-24 11:31:00,
2013-02-24 03:41:00,46.0,25.0,30.22,NW,320,24.0,28.0,42,-99.99,,,-99.99,,2013-02-24 11:41:00,
2013-02-24 03:52:00,46.0,25.0,30.22,NNW,330,18.0,29.0,42,-99.99,,,-99.99,,2013-02-24 11:52:00,
2013-02-24 04:01:00,46.0,25.0,30.22,NNW,330,18.0,29.0,42,-99.99,,,-99.99,,2013-02-24 12:01:00,
2013-02-24 04:11:00,46.0,25.0,30.22,NW,320,18.0,28.0,42,-99.99,,,-99.99,,2013-02-24 12:11:00,
2013-02-24 04:21:00,46.0,25.0,30.22,NW,310,18.0,27.0,42,-99.99,,,-99.99,,2013-02-24 12:21:00,
2013-02-24 04:32:00,46.0,25.0,30.22,NW,310,18.0,27.0,42,-99.99,,,-99.99,,2013-02-24 12:32:00,
2013-02-24 04:53:00,46.0,25.0,30.22,NW,320,12.0,23.0,42,-99.99,,,-99.99,,2013-02-24 12:53:00,
2013-02-24 05:04:00,46.0,25.0,30.22,NW,320,12.0,23.0,42,-99.99,,,-99.99,,2013-02-24 13:04:00,
2013-02-24 05:32:00,45.0,27.0,30.22,WNW,300,17.0,25.0,48,-99.99,,,-99.99,,2013-02-24 13:32:00,
2013-02-24 05:42:00,45.0,27.0,30.22,NW,310,16.0,27.0,48,-99.99,,,-99.99,,2013-02-24 13:42:00,
2013-02-24 05:51:00,45.0,27.0,30.22,NW,310,24.0,31.0,48,-99.99,,,-99.99,,2013-02-24 13:51:00,
2013-02-24 06:02:00,45.0,27.0,30.22,NW,310,24.0,31.0,48,-99.99,,,-99.99,,2013-02-24 14:02:00,
2013-02-24 06:11:00,45.0,25.0,30.23,NW,320,27.0,31.0,45,-99.99,,,-99.99,,2013-02-24 14:11:00,
2013-02-24 06:21:00,45.0,25.0,30.23,NW,310,18.0,31.0,45,-99.99,,,-99.99,,2013-02-24 14:21:00,
2013-02-24 06:32:00,45.0,25.0,30.24,NW,310,24.0,27.0,45,-99.99,,,-99.99,,2013-02-24 14:32:00,
2013-02-24 06:42:00,45.0,25.0,30.24,WNW,300,22.0,27.0,45,-99.99,,,-99.99,,2013-02-24 14:42:00,
2013-02-24 06:52:00,45.0,25.0,30.24,NW,310,20.0,25.0,45,-99.99,,,-99.99,,2013-02-24 14:52:00,
2013-02-24 07:01:00,45.0,25.0,30.24,NW,310,20.0,25.0,45,-99.99,,,-99.99,,2013-02-24 15:01:00,
2013-02-24 07:11:00,45.0,27.0,30.24,NW,310,15.0,24.0,48,-99.99,,,-99.99,,2013-02-24 15:11:00,
2013-02-24 07:31:00,46.0,27.0,30.25,NW,320,17.0,25.0,45,-99.99,,,-99.99,,2013-02-24 15:31:00,
2013-02-24 07:41:00,46.0,27.0,30.25,NW,320,22.0,28.0,45,-99.99,,,-99.99,,2013-02-24 15:41:00,
2013-02-24 07:52:00,46.0,27.0,30.25,NW,310,22.0,29.0,45,-99.99,,,-99.99,,2013-02-24 15:52:00,
2013-02-24 08:01:00,46.0,27.0,30.25,NW,310,22.0,29.0,45,-99.99,,,-99.99,,2013-02-24 16:01:00,
2013-02-24 08:11:00,48.0,27.0,30.25,NW,320,21.0,25.0,42,-99.99,,,-99.99,,2013-02-24 16:11:00,
2013-02-24 08:21:00,48.0,27.0,30.25,NW,320,24.0,31.0,42,-99.99,,,-99.99,,2013-02-24 16:21:00,
2013-02-24 08:31:00,48.0,27.0,30.25,NW,310,25.0,30.0,42,-99.99,,,-99.99,,2013-02-24 16:31:00,
2013-02-24 08:41:00,48.0,27.0,30.26,NW,310,23.0,31.0,42,-99.99,,,-99.99,,2013-02-24 16:41:00,
2013-02-24 08:51:00,50.0,27.0,30.26,NNW,340,22.0,31.0,39,-99.99,,,-99.99,,2013-02-24 16:51:00,
2013-02-24 09:01:00,50.0,27.0,30.26,NNW,340,22.0,31.0,39,-99.99,,,-99.99,,2013-02-24 17:01:00,
2013-02-24 09:11:00,50.0,27.0,30.26,NW,310,21.0,32.0,39,-99.99,,,-99.99,,2013-02-24 17:11:00,
2013-02-24 09:21:00,52.0,28.0,30.27,NW,320,22.0,30.0,40,-99.99,,,-99.99,,2013-02-24 17:21:00,
2013-02-24 09:31:00,52.0,28.0,30.26,NW,310,24.0,30.0,40,-99.99,,,-99.99,,2013-02-24 17:31:00,
2013-02-24 09:41:00,52.0,27.0,30.26,NW,320,21.0,30.0,37,-99.99,,,-99.99,,2013-02-24 17:41:00,
2013-02-24 09:52:00,54.0,28.0,30.26,NW,320,28.0,30.0,37,-99.99,,,-99.99,,2013-02-24 17:52:00,
2013-02-24 10:01:00,54.0,28.0,30.26,NW,320,28.0,30.0,37,-99.99,,,-99.99,,2013-02-24 18:01:00,
2013-02-24 10:11:00,54.0,27.0,30.26,NNW,330,15.0,28.0,34,-99.99,,,-99.99,,2013-02-24 18:11:00,
2013-02-24 10:21:00,54.0,27.0,30.26,NW,320,17.0,31.0,34,-99.99,,,-99.99,,2013-02-24 18:21:00,
2013-02-24 10:31:00,55.0,27.0,30.26,NW,320,24.0,29.0,32,-99.99,,,-99.99,,2013-02-24 18:31:00,
2013-02-24 10:41:00,55.0,27.0,30.26,NNW,330,20.0,29.0,32,-99.99,,,-99.99,,2013-02-24 18:41:00,
2013-02-24 10:51:00,55.0,28.0,30.26,NW,310,21.0,28.0,35,-99.99,,,-99.99,,2013-02-24 18:51:00,
2013-02-24 11:01:00,55.0,28.0,30.26,NW,310,21.0,28.0,35,-99.99,,,-99.99,,2013-02-24 19:01:00,
2013-02-24 11:11:00,57.0,27.0,30.25,NNW,330,18.0,32.0,30,-99.99,,,-99.99,,2013-02-24 19:11:00,
2013-02-24 11:21:00,57.0,25.0,30.25,NW,320,20.0,32.0,28,-99.99,,,-99.99,,2013-02-24 19:21:00,
2013-02-24 11:31:00,59.0,27.0,30.24,NNW,330,28.0,28.0,28,-99.99,,,-99.99,,2013-02-24 19:31:00,
2013-02-24 11:41:00,57.0,23.0,30.24,NW,320,21.0,28.0,26,-99.99,,,-99.99,,2013-02-24 19:41:00,
2013-02-24 11:51:00,59.0,27.0,30.24,NW,320,21.0,29.0,28,-99.99,,,-99.99,,2013-02-24 19:51:00,
2013-02-24 12:01:00,59.0,27.0,30.24,NW,320,21.0,29.0,28,-99.99,,,-99.99,,2013-02-24 20:01:00,
2013-02-24 12:11:00,59.0,27.0,30.23,NNW,340,20.0,27.0,28,-99.99,,,-99.99,,2013-02-24 20:11:00,
2013-02-24 12:21:00,59.0,25.0,30.23,NW,320,18.0,24.0,26,-99.99,,,-99.99,,2013-02-24 20:21:00,
2013-02-24 12:31:00,61.0,27.0,30.23,NW,320,12.0,24.0,26,-99.99,,,-99.99,,2013-02-24 20:31:00,
2013-02-24 12:41:00,61.0,23.0,30.22,NW,320,16.0,24.0,23,-99.99,,,-99.99,,2013-02-24 20:41:00,
2013-02-24 12:52:00,61.0,21.0,30.22,NNW,340,18.0,24.0,21,-99.99,,,-99.99,,2013-02-24 20:52:00,
2013-02-24 13:01:00,61.0,21.0,30.22,NNW,340,18.0,24.0,21,-99.99,,,-99.99,,2013-02-24 21:01:00,
2013-02-24 13:11:00,61.0,21.0,30.22,NW,320,21.0,25.0,21,-99.99,,,-99.99,,2013-02-24 21:11:00,
2013-02-24 13:21:00,61.0,25.0,30.22,NW,320,17.0,20.0,25,-99.99,,,-99.99,,2013-02-24 21:21:00,
2013-02-24 13:31:00,63.0,25.0,30.21,NNW,340,20.0,24.0,23,-99.99,,,-99.99,,2013-02-24 21:31:00,
2013-02-24 13:41:00,61.0,23.0,30.21,NNW,330,16.0,24.0,23,-99.99,,,-99.99,,2013-02-24 21:41:00,
2013-02-24 13:52:00,63.0,27.0,30.20,NW,320,13.0,22.0,25,-99.99,,,-99.99,,2013-02-24 21:52:00,
2013-02-24 14:01:00,63.0,27.0,30.20,NW,320,13.0,22.0,25,-99.99,,,-99.99,,2013-02-24 22:01:00,
2013-02-24 14:11:00,63.0,27.0,30.20,NNW,330,17.0,20.0,25,-99.99,,,-99.99,,2013-02-24 22:11:00,
2013-02-24 14:21:00,63.0,23.0,30.19,NW,320,16.0,22.0,21,-99.99,,,-99.99,,2013-02-24 22:21:00,
2013-02-24 14:31:00,63.0,25.0,30.19,NW,320,12.0,18.0,23,-99.99,,,-99.99,,2013-02-24 22:31:00,
2013-02-24 14:41:00,63.0,27.0,30.19,WNW,300,15.0,20.0,25,-99.99,,,-99.99,,2013-02-24 22:41:00,
2013-02-24 14:51:00,64.0,25.0,30.19,NW,310,15.0,16.0,22,-99.99,,,-99.99,,2013-02-24 22:51:00,
2013-02-24 15:01:00,64.0,25.0,30.19,NW,310,15.0,16.0,22,-99.99,,,-99.99,,2013-02-24 23:01:00,
2013-02-24 15:11:00,64.0,23.0,30.18,NNW,330,15.0,20.0,20,-99.99,,,-99.99,,2013-02-24 23:11:00,
2013-02-24 15:21:00,64.0,25.0,30.18,North,350,10.0,17.0,22,-99.99,,,-99.99,,2013-02-24 23:21:00,
2013-02-24 15:31:00,64.0,25.0,30.18,NW,320,12.0,-999.0,22,-99.99,,,-99.99,,2013-02-24 23:31:00,
2013-02-24 15:41:00,64.0,23.0,30.18,NW,320,12.0,-999.0,20,-99.99,,,-99.99,,2013-02-24 23:41:00,
2013-02-24 15:52:00,64.0,23.0,30.18,NW,320,12.0,-999.0,20,-99.99,,,-99.99,,2013-02-24 23:52:00,
2013-02-24 16:01:00,64.0,23.0,30.18,NW,320,12.0,-999.0,20,-99.99,,,-99.99,,2013-02-25 00:01:00,
2013-02-24 16:11:00,64.0,23.0,30.17,NNW,340,12.0,-999.0,20,-99.99,,,-99.99,,2013-02-25 00:11:00,
2013-02-24 16:21:00,64.0,25.0,30.17,NW,320,12.0,-999.0,22,-99.99,,,-99.99,,2013-02-25 00:21:00,
2013-02-24 16:31:00,63.0,23.0,30.17,NNW,340,10.0,-999.0,21,-99.99,,,-99.99,,2013-02-25 00:31:00,
2013-02-24 16:41:00,63.0,25.0,30.17,NNW,340,10.0,-999.0,23,-99.99,,,-99.99,,2013-02-25 00:41:00,
2013-02-24 16:51:00,63.0,27.0,30.17,NNW,330,5.0,-999.0,25,-99.99,,,-99.99,,2013-02-25 00:51:00,
2013-02-24 17:01:00,63.0,27.0,30.17,NNW,330,5.0,-999.0,25,-99.99,,,-99.99,,2013-02-25 01:01:00,
2013-02-24 17:11:00,63.0,28.0,30.17,NNW,340,10.0,-999.0,27,-99.99,,,-99.99,,2013-02-25 01:11:00,
2013-02-24 17:21:00,61.0,28.0,30.16,North,350,3.0,-999.0,29,-99.99,,,-99.99,,2013-02-25 01:21:00,
2013-02-24 17:31:00,61.0,30.0,30.17,NNW,340,7.0,-999.0,31,-99.99,,,-99.99,,2013-02-25 01:31:00,
2013-02-24 17:41:00,61.0,28.0,30.17,North,350,5.0,-999.0,29,-99.99,,,-99.99,,2013-02-25 01:41:00,
2013-02-24 17:51:00,57.0,32.0,30.17,NNW,340,1.0,-999.0,38,-99.99,,,-99.99,,2013-02-25 01:51:00,
2013-02-24 18:01:00,57.0,32.0,30.17,NNW,340,1.0,-999.0,38,-99.99,,,-99.99,,2013-02-25 02:01:00,
2013-02-24 18:11:00,57.0,28.0,30.17,North,0,0.0,-999.0,33,-99.99,,,-99.99,,2013-02-25 02:11:00,
2013-02-24 18:21:00,57.0,28.0,30.16,North,0,0.0,-999.0,33,-99.99,,,-99.99,,2013-02-25 02:21:00,
2013-02-24 18:31:00,57.0,28.0,30.16,North,0,0.0,-999.0,33,-99.99,,,-99.99,,2013-02-25 02:31:00,
2013-02-24 18:41:00,54.0,30.0,30.17,North,0,0.0,-999.0,40,-99.99,,,-99.99,,2013-02-25 02:41:00,
2013-02-24 18:51:00,54.0,28.0,30.17,North,0,0.0,-999.0,37,-99.99,,,-99.99,,2013-02-25 02:51:00,
2013-02-24 19:01:00,54.0,28.0,30.17,North,0,0.0,-999.0,37,-99.99,,,-99.99,,2013-02-25 03:01:00,
2013-02-24 19:11:00,52.0,30.0,30.18,North,0,0.0,-999.0,43,-99.99,,,-99.99,,2013-02-25 03:11:00,
2013-02-24 19:21:00,48.0,30.0,30.18,North,0,0.0,-999.0,49,-99.99,,,-99.99,,2013-02-25 03:21:00,
2013-02-24 19:31:00,46.0,32.0,30.18,North,0,0.0,-999.0,57,-99.99,,,-99.99,,2013-02-25 03:31:00,
2013-02-24 19:41:00,46.0,30.0,30.18,North,0,0.0,-999.0,52,-99.99,,,-99.99,,2013-02-25 03:41:00,
2013-02-24 19:51:00,45.0,32.0,30.19,North,0,0.0,-999.0,61,-99.99,,,-99.99,,2013-02-25 03:51:00,
2013-02-24 20:01:00,45.0,32.0,30.19,North,0,0.0,-999.0,61,-99.99,,,-99.99,,2013-02-25 04:01:00,
2013-02-24 20:11:00,43.0,32.0,30.19,North,0,0.0,-999.0,65,-99.99,,,-99.99,,2013-02-25 04:11:00,
2013-02-24 20:21:00,45.0,32.0,30.20,North,0,0.0,-999.0,61,-99.99,,,-99.99,,2013-02-25 04:21:00,
2013-02-24 20:31:00,43.0,32.0,30.19,North,0,0.0,-999.0,65,-99.99,,,-99.99,,2013-02-25 04:31:00,
2013-02-24 20:41:00,43.0,32.0,30.19,North,0,0.0,-999.0,65,-99.99,,,-99.99,,2013-02-25 04:41:00,
2013-02-24 20:51:00,45.0,30.0,30.20,North,0,0.0,-999.0,56,-99.99,,,-99.99,,2013-02-25 04:51:00,
2013-02-24 21:01:00,45.0,30.0,30.20,North,0,0.0,-999.0,56,-99.99,,,-99.99,,2013-02-25 05:01:00,
2013-02-24 21:11:00,45.0,28.0,30.20,North,0,0.0,-999.0,52,-99.99,,,-99.99,,2013-02-25 05:11:00,
2013-02-24 21:21:00,45.0,30.0,30.20,North,0,0.0,-999.0,56,-99.99,,,-99.99,,2013-02-25 05:21:00,
2013-02-24 21:31:00,43.0,30.0,30.20,North,0,0.0,-999.0,60,-99.99,,,-99.99,,2013-02-25 05:31:00,
2013-02-24 21:41:00,45.0,28.0,30.20,North,0,0.0,-999.0,52,-99.99,,,-99.99,,2013-02-25 05:41:00,
2013-02-24 21:52:00,43.0,30.0,30.21,North,0,0.0,-999.0,60,-99.99,,,-99.99,,2013-02-25 05:52:00,
2013-02-24 22:02:00,43.0,30.0,30.21,North,0,0.0,-999.0,60,-99.99,,,-99.99,,2013-02-25 06:02:00,
2013-02-24 22:11:00,43.0,30.0,30.21,North,0,0.0,-999.0,60,-99.99,,,-99.99,,2013-02-25 06:11:00,
2013-02-24 22:21:00,43.0,28.0,30.21,North,0,0.0,-999.0,56,-99.99,,,-99.99,,2013-02-25 06:21:00,
2013-02-24 22:31:00,41.0,30.0,30.21,North,0,0.0,-999.0,65,-99.99,,,-99.99,,2013-02-25 06:31:00,
2013-02-24 22:41:00,43.0,30.0,30.21,North,0,0.0,-999.0,60,-99.99,,,-99.99,,2013-02-25 06:41:00,
2013-02-24 22:51:00,41.0,30.0,30.22,South,170,1.0,-999.0,65,-99.99,,,-99.99,,2013-02-25 06:51:00,
2013-02-24 23:01:00,41.0,30.0,30.22,South,170,1.0,-999.0,65,-99.99,,,-99.99,,2013-02-25 07:01:00,
2013-02-24 23:11:00,43.0,28.0,30.22,North,0,0.0,-999.0,56,-99.99,,,-99.99,,2013-02-25 07:11:00,
2013-02-24 23:21:00,43.0,28.0,30.22,South,180,5.0,-999.0,56,-99.99,,,-99.99,,2013-02-25 07:21:00,
2013-02-24 23:31:00,43.0,28.0,30.22,North,0,0.0,-999.0,56,-99.99,,,-99.99,,2013-02-25 07:31:00,
2013-02-24 23:41:00,43.0,28.0,30.22,North,0,0.0,-999.0,56,-99.99,,,-99.99,,2013-02-25 07:41:00,
2013-02-24 23:51:00,37.0,30.0,30.23,North,0,0.0,-999.0,74,-99.99,,,-99.99,,2013-02-25 07:51:00,